Time;durP1;ratioP1;P1;durP2;ratioP2;P2;SDS_P1;SDS_P2;PMS_P1;PMS_P2;Temp;Humidity;BMP_temperature;BMP_pressure;BME280_temperature;BME280_humidity;BME280_pressure;Samples;Min_cycle;Max_cycle;Signal;HPM_P1;HPM_P2
2023/01/05 00:01:42;;;;;;;14.05;2.85;;;10.40;99.90;;;;;;5037073;28;20131;-88
2023/01/05 00:04:08;;;;;;;12.70;3.42;;;10.40;99.90;;;;;;5036983;28;20525;-88
2023/01/05 00:06:34;;;;;;;19.77;2.70;;;10.40;99.90;;;;;;5036813;28;20544;-88
2023/01/05 00:09:00;;;;;;;14.63;3.17;;;10.40;99.90;;;;;;5052990;28;20044;-88
2023/01/05 00:22:37;;;;;;;14.60;3.15;;;10.40;99.90;;;;;;5052832;28;20045;-89
2023/01/05 00:25:12;;;;;;;16.33;2.90;;;10.40;99.90;;;;;;5053417;28;20127;-89
2023/01/05 00:27:41;;;;;;;19.60;3.78;;;10.40;99.90;;;;;;5053127;28;20037;-88
2023/01/05 00:30:09;;;;;;;19.33;3.08;;;10.40;99.90;;;;;;5036502;28;20024;-88
2023/01/05 00:32:34;;;;;;;20.15;2.97;;;10.40;99.90;;;;;;5052738;28;20448;-88
2023/01/05 00:35:00;;;;;;;20.08;2.88;;;10.50;99.90;;;;;;5053170;28;20032;-89
2023/01/05 00:37:30;;;;;;;15.40;3.45;;;10.50;99.90;;;;;;5053450;28;20044;-88
2023/01/05 00:39:55;;;;;;;19.38;2.92;;;10.50;99.90;;;;;;5052891;28;20044;-89
2023/01/05 00:42:21;;;;;;;14.07;2.55;;;10.50;99.90;;;;;;5052997;28;20123;-88
2023/01/05 00:44:47;;;;;;;16.52;3.08;;;10.60;99.90;;;;;;5036204;28;20425;-88
2023/01/05 00:47:13;;;;;;;13.40;2.00;;;10.50;99.90;;;;;;5053567;28;20048;-88
2023/01/05 00:49:38;;;;;;;15.32;4.05;;;10.60;99.90;;;;;;5053159;28;20029;-89
2023/01/05 00:52:05;;;;;;;13.43;2.88;;;10.60;99.90;;;;;;5052971;28;20551;-89
2023/01/05 00:54:30;;;;;;;22.67;2.78;;;10.60;99.90;;;;;;5052973;28;20082;-88
2023/01/05 00:56:56;;;;;;;21.77;3.58;;;10.60;99.90;;;;;;5052751;28;20044;-89
2023/01/05 00:59:22;;;;;;;15.32;2.30;;;10.60;99.90;;;;;;5036459;28;20391;-89
2023/01/05 01:01:49;;;;;;;16.98;3.13;;;10.60;99.90;;;;;;5052511;28;20044;-89
2023/01/05 01:04:16;;;;;;;29.30;3.70;;;10.60;99.90;;;;;;5036265;28;20521;-89
2023/01/05 01:06:42;;;;;;;16.85;3.00;;;10.60;99.90;;;;;;5036386;28;20036;-89
2023/01/05 01:09:08;;;;;;;14.85;2.53;;;10.70;99.90;;;;;;5052353;28;20044;-89
2023/01/05 01:11:34;;;;;;;18.58;3.03;;;10.60;99.90;;;;;;5036113;28;20029;-88
2023/01/05 01:13:59;;;;;;;15.63;3.78;;;10.60;99.90;;;;;;5052603;28;20039;-89
2023/01/05 01:16:25;;;;;;;24.08;3.85;;;10.70;99.90;;;;;;5036708;28;20040;-89
2023/01/05 01:18:50;;;;;;;21.23;3.60;;;10.70;99.90;;;;;;5036216;28;20040;-89
2023/01/05 01:21:16;;;;;;;17.42;3.10;;;10.60;99.90;;;;;;5053191;28;20561;-89
2023/01/05 01:23:42;;;;;;;19.67;3.55;;;10.70;99.90;;;;;;5035931;28;20518;-89
2023/01/05 01:26:12;;;;;;;18.80;3.70;;;10.70;99.90;;;;;;5052648;28;20401;-88
2023/01/05 01:28:38;;;;;;;15.88;3.05;;;10.70;99.90;;;;;;5052655;28;20029;-88
2023/01/05 01:31:04;;;;;;;16.70;3.85;;;10.60;99.90;;;;;;5054167;28;20039;-88
2023/01/05 01:33:30;;;;;;;20.83;3.78;;;10.70;99.90;;;;;;5039282;28;20037;-89
2023/01/05 01:35:56;;;;;;;15.45;3.70;;;10.70;99.90;;;;;;5039901;28;20033;-89
2023/01/05 01:38:22;;;;;;;19.77;3.38;;;10.70;99.90;;;;;;5040102;28;20040;-89
2023/01/05 01:40:48;;;;;;;20.15;3.42;;;10.60;99.90;;;;;;5039517;28;20502;-88
2023/01/05 01:43:17;;;;;;;19.95;3.00;;;10.70;99.90;;;;;;5039319;28;20486;-88
2023/01/05 01:45:43;;;;;;;17.63;4.22;;;10.60;99.90;;;;;;5056171;28;20037;-88
2023/01/05 01:48:13;;;;;;;11.80;2.50;;;10.60;99.90;;;;;;5039471;28;20032;-89
2023/01/05 01:50:57;;;;;;;17.55;3.75;;;10.60;99.90;;;;;;5039345;28;20505;-89
2023/01/05 01:53:26;;;;;;;13.73;2.28;;;10.60;99.90;;;;;;5056626;28;20055;-88
2023/01/05 01:55:53;;;;;;;14.68;2.72;;;10.60;99.90;;;;;;5039865;28;20123;-88
2023/01/05 01:58:22;;;;;;;15.48;2.53;;;10.60;99.90;;;;;;5039540;28;20040;-89
2023/01/05 02:00:48;;;;;;;16.20;3.95;;;10.60;99.90;;;;;;5055867;28;20045;-88
2023/01/05 02:03:14;;;;;;;17.90;3.00;;;10.60;99.90;;;;;;5039059;28;20044;-88
2023/01/05 02:05:40;;;;;;;18.45;3.25;;;10.60;99.90;;;;;;5039127;28;20037;-89
2023/01/05 02:08:11;;;;;;;14.90;2.72;;;10.60;99.90;;;;;;5038913;28;20177;-88
2023/01/05 02:10:59;;;;;;;16.20;2.35;;;10.50;99.90;;;;;;5055713;28;20032;-89
2023/01/05 02:13:30;;;;;;;11.05;3.17;;;10.50;99.90;;;;;;5031925;28;20029;-89
2023/01/05 02:16:02;;;;;;;22.02;3.08;;;10.50;99.90;;;;;;5055558;28;20094;-89
2023/01/05 02:19:06;;;;;;;14.13;2.60;;;10.50;99.90;;;;;;5039267;28;20107;-89
2023/01/05 02:21:41;;;;;;;14.73;2.45;;;10.50;99.90;;;;;;5032828;28;20041;-89
2023/01/05 02:24:27;;;;;;;10.77;2.92;;;10.50;99.90;;;;;;5055050;28;20441;-89
2023/01/05 02:26:55;;;;;;;15.68;2.25;;;10.50;99.90;;;;;;5055682;28;20032;-89
2023/01/05 02:29:39;;;;;;;19.42;3.25;;;10.40;99.90;;;;;;5038663;28;20048;-88
2023/01/05 02:32:33;;;;;;;15.38;3.22;;;10.40;99.90;;;;;;5055034;28;20036;-88
2023/01/05 02:35:23;;;;;;;15.10;3.03;;;10.40;99.90;;;;;;5055231;28;20036;-88
2023/01/05 02:38:00;;;;;;;18.63;2.22;;;10.40;99.90;;;;;;5033102;28;20037;-89
2023/01/05 02:40:33;;;;;;;18.30;2.72;;;10.40;99.90;;;;;;5038335;28;20098;-88
2023/01/05 02:42:59;;;;;;;14.73;2.65;;;10.40;99.90;;;;;;5038625;28;20043;-89
2023/01/05 02:45:25;;;;;;;7.35;1.75;;;10.40;99.90;;;;;;5038303;28;20075;-88
2023/01/05 02:47:50;;;;;;;13.70;2.63;;;10.40;99.90;;;;;;5038320;28;20060;-88
2023/01/05 02:50:39;;;;;;;17.83;3.05;;;10.50;99.90;;;;;;5038452;28;20059;-89
2023/01/05 02:53:25;;;;;;;21.00;3.80;;;10.50;99.90;;;;;;5037561;28;20090;-90
2023/01/05 02:55:55;;;;;;;16.98;3.25;;;10.50;99.90;;;;;;5051291;28;20118;-88
2023/01/05 02:58:30;;;;;;;18.98;2.78;;;10.50;99.90;;;;;;5054998;28;20111;-89
2023/01/05 03:01:24;;;;;;;18.27;4.45;;;10.50;99.90;;;;;;5054956;28;20515;-89
2023/01/05 03:03:54;;;;;;;15.98;2.67;;;10.50;99.90;;;;;;5053724;28;20036;-88
2023/01/05 03:06:28;;;;;;;18.10;2.38;;;10.50;99.90;;;;;;5038107;28;20036;-88
2023/01/05 03:08:58;;;;;;;19.88;3.42;;;10.50;99.90;;;;;;5037923;28;20047;-88
2023/01/05 03:14:45;;;;;;;10.05;2.83;;;10.50;99.90;;;;;;5048096;28;20062;-88
2023/01/05 03:17:14;;;;;;;15.32;2.75;;;10.50;99.90;;;;;;5046844;28;20040;-88
2023/01/05 03:19:43;;;;;;;16.23;3.03;;;10.50;99.90;;;;;;5054438;28;20044;-88
2023/01/05 03:36:48;;;;;;;15.13;2.65;;;10.30;99.90;;;;;;5047090;28;20498;-89
2023/01/05 03:39:16;;;;;;;19.45;3.88;;;10.30;99.90;;;;;;5037411;28;20047;-88
2023/01/05 03:41:42;;;;;;;14.75;2.83;;;10.30;99.90;;;;;;5054228;28;20489;-89
2023/01/05 03:44:08;;;;;;;14.38;3.35;;;10.40;99.90;;;;;;5036903;28;20036;-89
2023/01/05 03:46:34;;;;;;;17.05;3.42;;;10.30;99.90;;;;;;5037267;28;20119;-89
2023/01/05 03:48:59;;;;;;;12.23;2.65;;;10.30;99.90;;;;;;5053806;28;20112;-88
2023/01/05 03:51:25;;;;;;;17.35;2.92;;;10.40;99.90;;;;;;5037049;28;20028;-89
2023/01/05 03:53:50;;;;;;;16.27;3.78;;;10.40;99.90;;;;;;5036551;28;20037;-89
2023/01/05 03:56:16;;;;;;;13.40;1.92;;;10.40;99.90;;;;;;5037141;28;20047;-89
2023/01/05 03:58:41;;;;;;;15.07;2.22;;;10.40;99.90;;;;;;5053589;28;20127;-89
2023/01/05 04:01:07;;;;;;;23.85;3.40;;;10.40;99.90;;;;;;5037046;28;20418;-88
2023/01/05 04:03:33;;;;;;;19.67;3.28;;;10.40;99.90;;;;;;5036837;28;20096;-88
2023/01/05 04:05:59;;;;;;;15.10;3.90;;;10.40;99.90;;;;;;5036719;28;20097;-88
2023/01/05 04:08:25;;;;;;;12.98;2.65;;;10.40;99.90;;;;;;5037163;28;20040;-88
2023/01/05 04:10:52;;;;;;;13.07;2.25;;;10.40;99.90;;;;;;5053209;28;20040;-88
2023/01/05 04:13:18;;;;;;;16.63;2.83;;;10.40;99.90;;;;;;5036940;28;20074;-89
2023/01/05 04:15:43;;;;;;;14.00;2.13;;;10.40;99.90;;;;;;5036773;28;20405;-88
2023/01/05 04:18:09;;;;;;;12.60;2.55;;;10.40;99.90;;;;;;5037180;28;20045;-88
2023/01/05 04:20:34;;;;;;;12.60;4.25;;;10.40;99.90;;;;;;5036615;28;20111;-89
2023/01/05 04:23:00;;;;;;;15.32;2.95;;;10.40;99.90;;;;;;5052866;28;20078;-88
2023/01/05 04:25:25;;;;;;;11.48;2.22;;;10.40;99.90;;;;;;5036761;28;20037;-89
2023/01/05 04:27:51;;;;;;;23.92;2.88;;;10.40;99.90;;;;;;5037018;28;20033;-89
2023/01/05 04:30:16;;;;;;;11.65;3.05;;;10.40;99.90;;;;;;5036561;28;20401;-88
2023/01/05 04:32:42;;;;;;;13.80;2.58;;;10.40;99.90;;;;;;5036633;28;20401;-89
2023/01/05 04:35:08;;;;;;;15.93;2.88;;;10.40;99.90;;;;;;5052974;28;20590;-88
2023/01/05 04:37:33;;;;;;;19.65;3.47;;;10.40;99.90;;;;;;5053691;28;20040;-88
2023/01/05 04:39:59;;;;;;;9.48;2.28;;;10.30;99.90;;;;;;5036615;28;20036;-88
2023/01/05 04:42:24;;;;;;;12.43;2.45;;;10.30;99.90;;;;;;5052727;28;20497;-87
2023/01/05 04:44:50;;;;;;;13.23;2.80;;;10.30;99.90;;;;;;5052801;28;20032;-88
2023/01/05 04:47:15;;;;;;;14.57;2.78;;;10.30;99.90;;;;;;5053387;28;20060;-88
2023/01/05 04:49:41;;;;;;;13.70;2.67;;;10.30;99.90;;;;;;5052794;28;20036;-88
2023/01/05 04:52:07;;;;;;;13.45;2.05;;;10.30;99.90;;;;;;5036397;28;20036;-88
2023/01/05 04:54:32;;;;;;;12.98;2.80;;;10.30;99.90;;;;;;5036103;28;20032;-88
2023/01/05 04:56:58;;;;;;;12.40;3.25;;;10.30;99.90;;;;;;5036687;28;20029;-89
2023/01/05 04:59:24;;;;;;;10.15;2.42;;;10.40;99.90;;;;;;5052879;28;20442;-88
2023/01/05 05:01:49;;;;;;;18.33;3.65;;;10.30;99.90;;;;;;5052667;28;20040;-88
2023/01/05 05:04:15;;;;;;;13.40;2.70;;;10.30;99.90;;;;;;5052691;28;20044;-89
2023/01/05 05:06:40;;;;;;;10.45;1.95;;;10.40;99.90;;;;;;5038995;28;20045;-88
2023/01/05 05:09:06;;;;;;;17.38;2.42;;;10.40;99.90;;;;;;5040613;28;20032;-88
2023/01/05 05:11:31;;;;;;;20.60;3.28;;;10.40;99.90;;;;;;5040130;28;20032;-87
2023/01/05 05:13:57;;;;;;;18.65;2.92;;;10.40;99.90;;;;;;5039917;28;20032;-88
2023/01/05 05:16:22;;;;;;;18.50;2.70;;;10.30;99.90;;;;;;5056832;28;20051;-88
2023/01/05 05:18:48;;;;;;;18.83;3.47;;;10.40;99.90;;;;;;5040113;28;20047;-88
2023/01/05 05:21:14;;;;;;;18.98;4.43;;;10.40;99.90;;;;;;5048639;28;20036;-88
2023/01/05 05:23:39;;;;;;;15.93;3.42;;;10.30;99.90;;;;;;5039895;28;20064;-89
2023/01/05 05:26:05;;;;;;;15.00;3.08;;;10.40;99.90;;;;;;5040017;28;20037;-88
2023/01/05 05:28:30;;;;;;;17.05;2.38;;;10.30;99.90;;;;;;5056780;28;20390;-88
2023/01/05 05:30:56;;;;;;;17.05;2.70;;;10.40;99.90;;;;;;5039743;28;20058;-88
2023/01/05 05:33:23;;;;;;;13.85;3.40;;;10.30;99.90;;;;;;5056328;28;20079;-88
2023/01/05 05:35:48;;;;;;;13.48;2.40;;;10.30;99.90;;;;;;5039792;28;20066;-88
2023/01/05 05:38:14;;;;;;;18.23;3.45;;;10.30;99.90;;;;;;5056474;28;20040;-88
2023/01/05 05:40:40;;;;;;;19.73;3.22;;;10.30;99.90;;;;;;5055898;28;20036;-88
2023/01/05 05:43:05;;;;;;;19.73;3.30;;;10.30;99.90;;;;;;5056202;28;20043;-88
2023/01/05 05:45:31;;;;;;;15.48;2.53;;;10.30;99.90;;;;;;5039242;28;20039;-88
2023/01/05 05:47:56;;;;;;;18.30;3.85;;;10.30;99.90;;;;;;5039872;28;20117;-88
2023/01/05 05:50:22;;;;;;;17.02;2.70;;;10.30;99.90;;;;;;5039406;28;20078;-87
2023/01/05 05:52:48;;;;;;;18.10;4.25;;;10.30;99.90;;;;;;5056223;28;20024;-88
2023/01/05 05:55:14;;;;;;;20.30;3.83;;;10.30;99.90;;;;;;5055975;28;20089;-88
2023/01/05 05:57:39;;;;;;;11.68;2.58;;;10.30;99.90;;;;;;5039280;28;20087;-88
2023/01/05 06:00:05;;;;;;;18.80;2.80;;;10.30;99.90;;;;;;5039312;28;20063;-88
2023/01/05 06:02:31;;;;;;;15.52;3.65;;;10.30;99.90;;;;;;5038956;28;20040;-88
2023/01/05 06:04:56;;;;;;;12.27;3.83;;;10.30;99.90;;;;;;5031061;28;20452;-88
2023/01/05 06:07:22;;;;;;;18.70;3.15;;;10.30;99.90;;;;;;5039467;28;20033;-91
2023/01/05 06:09:48;;;;;;;16.10;2.67;;;10.30;99.90;;;;;;5052744;28;20044;-88
2023/01/05 06:12:13;;;;;;;12.93;2.92;;;10.30;99.90;;;;;;5038617;28;20040;-88
2023/01/05 06:14:39;;;;;;;14.75;2.83;;;10.30;99.90;;;;;;5055423;28;20072;-88
2023/01/05 06:17:04;;;;;;;19.48;3.00;;;10.30;99.90;;;;;;5037783;28;20101;-89
2023/01/05 06:19:30;;;;;;;18.05;2.58;;;10.30;99.90;;;;;;5038351;28;20070;-88
2023/01/05 06:21:55;;;;;;;10.93;2.58;;;10.40;99.90;;;;;;5038544;28;20043;-88
2023/01/05 06:24:21;;;;;;;16.35;2.42;;;10.30;99.90;;;;;;5038122;28;20036;-88
2023/01/05 06:26:47;;;;;;;15.45;3.03;;;10.40;99.90;;;;;;5038396;28;20036;-88
2023/01/05 06:29:12;;;;;;;14.10;3.13;;;10.40;99.90;;;;;;5054707;28;20414;-88
2023/01/05 06:31:38;;;;;;;13.52;2.22;;;10.40;99.90;;;;;;5054753;28;20039;-89
2023/01/05 06:34:03;;;;;;;14.77;2.90;;;10.30;99.90;;;;;;5038137;28;20119;-89
2023/01/05 06:36:29;;;;;;;18.73;3.33;;;10.30;99.90;;;;;;5038345;28;20040;-89
2023/01/05 06:38:54;;;;;;;17.63;2.72;;;10.40;99.90;;;;;;5055022;28;20068;-89
2023/01/05 06:41:20;;;;;;;17.13;2.45;;;10.30;99.90;;;;;;5037965;28;20047;-88
2023/01/05 06:43:45;;;;;;;13.63;3.00;;;10.30;99.90;;;;;;5037761;28;20041;-88
2023/01/05 06:46:11;;;;;;;18.52;3.10;;;10.30;99.90;;;;;;5054766;28;20097;-88
2023/01/05 06:48:37;;;;;;;15.80;3.78;;;10.30;99.90;;;;;;5054388;28;20123;-88
2023/01/05 06:51:02;;;;;;;17.75;2.88;;;10.30;99.90;;;;;;5054598;28;20031;-88
2023/01/05 06:53:28;;;;;;;12.77;3.15;;;10.30;99.90;;;;;;5037683;28;20032;-87
2023/01/05 06:55:53;;;;;;;15.65;3.13;;;10.30;99.90;;;;;;5054660;28;20044;-88
2023/01/05 06:58:19;;;;;;;16.15;2.55;;;10.30;99.90;;;;;;5038083;28;20055;-88
2023/01/05 07:00:44;;;;;;;16.52;2.45;;;10.30;99.90;;;;;;5037549;28;20525;-88
2023/01/05 07:03:12;;;;;;;14.43;2.95;;;10.30;99.90;;;;;;5037948;28;20043;-88
2023/01/05 07:05:38;;;;;;;18.10;3.35;;;10.30;99.90;;;;;;5037372;28;20048;-88
2023/01/05 07:08:04;;;;;;;18.23;3.35;;;10.30;99.90;;;;;;5037780;28;20040;-89
2023/01/05 07:10:29;;;;;;;13.90;2.67;;;10.30;99.90;;;;;;5037315;28;20052;-88
2023/01/05 07:12:55;;;;;;;18.58;3.38;;;10.30;99.90;;;;;;5037272;28;20039;-88
2023/01/05 07:15:21;;;;;;;23.30;3.08;;;10.30;99.90;;;;;;5037664;28;20079;-88
2023/01/05 07:17:47;;;;;;;17.65;2.55;;;10.30;99.90;;;;;;5053853;28;20072;-89
2023/01/05 07:20:12;;;;;;;14.23;2.92;;;10.30;99.90;;;;;;5053795;28;20408;-88
2023/01/05 07:22:38;;;;;;;12.07;2.80;;;10.30;99.90;;;;;;5053776;28;20029;-89
2023/01/05 07:25:03;;;;;;;13.43;2.33;;;10.30;99.90;;;;;;5036870;28;20048;-89
2023/01/05 07:27:30;;;;;;;13.93;4.00;;;10.30;99.90;;;;;;5037065;28;20040;-89
2023/01/05 07:29:56;;;;;;;15.07;2.90;;;10.20;99.90;;;;;;5036810;28;20033;-88
2023/01/05 07:32:21;;;;;;;16.05;3.20;;;10.20;99.90;;;;;;5037135;28;20035;-89
2023/01/05 07:34:47;;;;;;;15.80;3.35;;;10.10;99.90;;;;;;5053954;28;20138;-89
2023/01/05 07:37:13;;;;;;;17.65;3.50;;;10.10;99.90;;;;;;5037048;28;20032;-88
2023/01/05 07:39:38;;;;;;;15.75;3.47;;;10.10;99.90;;;;;;5053290;28;20032;-88
2023/01/05 07:42:04;;;;;;;11.48;3.55;;;10.10;99.90;;;;;;5036404;28;20123;-89
2023/01/05 07:44:29;;;;;;;18.13;3.10;;;10.00;99.90;;;;;;5036741;28;20036;-88
2023/01/05 07:46:55;;;;;;;19.60;3.50;;;10.10;99.90;;;;;;5036799;28;20029;-89
2023/01/05 07:49:20;;;;;;;17.52;3.47;;;10.10;99.90;;;;;;5053631;28;20448;-89
2023/01/05 07:51:46;;;;;;;16.35;3.58;;;10.10;99.90;;;;;;5035873;28;20482;-89
2023/01/05 07:54:12;;;;;;;11.43;2.38;;;10.10;99.90;;;;;;5051629;28;20039;-89
2023/01/05 07:56:37;;;;;;;12.77;2.08;;;10.10;99.90;;;;;;5053315;28;20032;-89
2023/01/05 07:59:03;;;;;;;15.05;2.83;;;10.00;99.90;;;;;;5053464;28;20160;-88
2023/01/05 08:01:28;;;;;;;12.52;2.50;;;10.10;99.90;;;;;;5036596;28;20409;-89
2023/01/05 08:03:54;;;;;;;11.57;2.15;;;10.10;99.90;;;;;;5053146;28;20028;-89
2023/01/05 08:06:20;;;;;;;13.25;2.92;;;10.00;99.90;;;;;;5053002;28;20075;-88
2023/01/05 08:08:46;;;;;;;15.30;2.35;;;10.00;99.90;;;;;;5052649;28;20513;-88
2023/01/05 08:11:17;;;;;;;14.05;2.53;;;10.00;99.90;;;;;;5052734;28;20044;-89
2023/01/05 08:13:59;;;;;;;19.38;3.50;;;10.00;99.90;;;;;;5036011;28;20156;-89
2023/01/05 08:16:26;;;;;;;12.87;2.70;;;10.00;99.90;;;;;;5053064;28;20044;-88
2023/01/05 08:18:52;;;;;;;18.38;3.15;;;10.00;99.90;;;;;;5036076;28;20043;-89
2023/01/05 08:21:17;;;;;;;15.60;2.85;;;10.00;99.90;;;;;;5052528;28;20040;-88
2023/01/05 08:23:46;;;;;;;16.55;3.30;;;10.00;99.90;;;;;;5035872;28;20059;-89
2023/01/05 08:26:14;;;;;;;15.95;2.58;;;10.00;99.90;;;;;;5036000;28;20494;-88
2023/01/05 08:28:41;;;;;;;9.40;1.80;;;10.00;99.90;;;;;;5052410;28;20082;-88
2023/01/05 08:31:10;;;;;;;13.68;2.95;;;10.00;99.90;;;;;;5036370;28;20499;-88
2023/01/05 08:33:36;;;;;;;15.82;4.03;;;10.00;99.90;;;;;;5035659;28;20493;-88
2023/01/05 08:36:10;;;;;;;20.40;3.55;;;10.10;99.90;;;;;;5052532;28;20076;-88
2023/01/05 08:38:36;;;;;;;17.88;2.85;;;10.10;99.90;;;;;;5052619;28;20051;-87
2023/01/05 08:41:02;;;;;;;28.17;4.78;;;10.10;99.90;;;;;;5035609;28;20040;-87
2023/01/05 08:43:27;;;;;;;12.40;2.72;;;10.10;99.90;;;;;;5044549;28;20033;-88
2023/01/05 08:45:53;;;;;;;21.23;3.25;;;10.10;99.90;;;;;;5035820;28;20541;-88
2023/01/05 08:48:19;;;;;;;17.08;3.20;;;10.10;99.90;;;;;;5035662;28;20036;-88
2023/01/05 08:50:44;;;;;;;22.27;2.83;;;10.10;99.90;;;;;;5036109;28;20082;-88
2023/01/05 08:53:10;;;;;;;25.27;3.60;;;10.10;99.90;;;;;;5052078;28;20040;-88
2023/01/05 08:55:36;;;;;;;18.45;3.28;;;10.10;99.90;;;;;;5035866;28;20143;-89
2023/01/05 08:58:02;;;;;;;23.23;4.70;;;10.10;99.90;;;;;;5052501;28;20040;-88
2023/01/05 09:00:27;;;;;;;23.98;4.05;;;10.20;99.90;;;;;;5052233;28;20136;-89
2023/01/05 09:02:53;;;;;;;18.40;3.55;;;10.20;99.90;;;;;;5051989;28;20032;-88
2023/01/05 09:05:18;;;;;;;15.50;2.38;;;10.20;99.90;;;;;;5035174;28;20051;-89
2023/01/05 09:07:44;;;;;;;20.02;2.80;;;10.20;99.90;;;;;;5035635;28;20079;-88
2023/01/05 09:10:10;;;;;;;14.10;2.35;;;10.20;99.90;;;;;;5050458;28;20079;-88
2023/01/05 09:12:37;;;;;;;14.80;3.08;;;10.20;99.90;;;;;;5034354;28;20036;-88
2023/01/05 09:15:04;;;;;;;17.25;3.20;;;10.20;99.90;;;;;;5035999;28;20033;-86
2023/01/05 09:17:31;;;;;;;15.32;2.88;;;10.20;99.90;;;;;;5052468;28;20085;-88
2023/01/05 09:19:56;;;;;;;20.48;3.40;;;10.20;99.90;;;;;;5053018;28;20107;-88
2023/01/05 09:22:22;;;;;;;18.30;2.92;;;10.20;99.90;;;;;;5036203;28;20628;-88
2023/01/05 09:24:47;;;;;;;13.93;2.95;;;10.20;99.90;;;;;;5052552;28;20478;-88
2023/01/05 09:27:13;;;;;;;13.85;2.65;;;10.20;99.90;;;;;;5052848;28;20098;-91
2023/01/05 09:29:39;;;;;;;18.85;3.42;;;10.30;99.90;;;;;;5052631;28;20513;-92
2023/01/05 09:32:06;;;;;;;13.05;3.50;;;10.30;99.90;;;;;;5052613;28;20033;-91
2023/01/05 09:34:32;;;;;;;17.77;2.58;;;10.30;99.90;;;;;;5035822;28;20606;-92
2023/01/05 09:36:57;;;;;;;12.35;3.08;;;10.30;99.90;;;;;;5033803;28;20111;-91
2023/01/05 09:39:23;;;;;;;18.40;3.25;;;10.30;99.90;;;;;;5052161;28;20431;-91
2023/01/05 09:41:58;;;;;;;12.05;2.63;;;10.40;99.90;;;;;;5035172;28;20044;-91
2023/01/05 09:44:34;;;;;;;22.60;3.13;;;10.40;99.90;;;;;;5035185;28;20517;-91
2023/01/05 09:47:18;;;;;;;22.50;2.55;;;10.40;99.90;;;;;;5051988;28;20052;-91
2023/01/05 09:49:47;;;;;;;15.43;3.15;;;10.40;99.90;;;;;;5035227;28;20549;-91
2023/01/05 09:52:13;;;;;;;15.98;3.70;;;10.40;99.90;;;;;;5037330;28;20078;-92
2023/01/05 09:54:39;;;;;;;14.23;2.25;;;10.40;99.90;;;;;;5039098;28;20037;-92
2023/01/05 09:57:14;;;;;;;11.13;2.38;;;10.40;99.90;;;;;;5038844;28;20037;-91
2023/01/05 09:59:48;;;;;;;12.75;2.53;;;10.40;99.90;;;;;;5038912;28;20459;-91
2023/01/05 10:02:20;;;;;;;12.48;2.55;;;10.40;99.90;;;;;;5048798;28;20067;-91
2023/01/05 10:04:46;;;;;;;11.32;2.45;;;10.40;99.90;;;;;;5039076;28;20045;-91
2023/01/05 10:07:30;;;;;;;16.55;2.47;;;10.40;99.90;;;;;;5056035;28;20106;-91
2023/01/05 10:10:00;;;;;;;19.05;2.78;;;10.40;99.90;;;;;;5039126;28;20402;-91
2023/01/05 10:13:04;;;;;;;17.95;2.75;;;10.50;99.90;;;;;;5038800;28;20036;-91
2023/01/05 10:15:37;;;;;;;16.02;2.80;;;10.50;99.90;;;;;;4960413;28;20053;-91
2023/01/05 10:18:10;;;;;;;11.88;2.20;;;10.50;99.90;;;;;;4970534;28;20038;-91
2023/01/05 10:20:50;;;;;;;13.82;2.58;;;10.60;99.90;;;;;;4954908;28;20049;-92
2023/01/05 10:24:07;;;;;;;15.07;3.55;;;10.50;99.90;;;;;;4955650;28;20181;-92
2023/01/05 10:26:59;;;;;;;19.35;2.85;;;10.60;99.90;;;;;;4944954;29;20051;-92
2023/01/05 10:29:52;;;;;;;13.60;1.80;;;10.60;99.90;;;;;;4945329;28;20043;-92
2023/01/05 10:32:35;;;;;;;14.50;2.65;;;10.60;99.90;;;;;;4935777;29;20298;-91
2023/01/05 10:35:07;;;;;;;;;;;10.70;99.90;;;;;;4937389;29;20039;-92
2023/01/05 10:37:54;;;;;;;12.05;2.05;;;10.70;99.90;;;;;;4936674;29;20009;-91
2023/01/05 10:40:38;;;;;;;11.02;2.38;;;10.70;99.90;;;;;;4960097;28;20118;-92
2023/01/05 10:43:18;;;;;;;13.98;2.33;;;10.70;99.90;;;;;;4960856;28;20111;-92
2023/01/05 10:45:44;;;;;;;15.70;3.55;;;10.80;99.90;;;;;;4938113;28;20051;-92
2023/01/05 10:48:16;;;;;;;19.48;2.50;;;10.90;99.90;;;;;;4960450;28;20079;-92
2023/01/05 10:50:44;;;;;;;17.45;3.53;;;10.90;99.90;;;;;;4955409;28;20066;-91
2023/01/05 10:53:19;;;;;;;19.05;2.53;;;10.90;99.90;;;;;;4977524;28;20076;-91
2023/01/05 10:55:53;;;;;;;11.73;2.40;;;11.00;99.90;;;;;;4994319;28;20416;-91
2023/01/05 10:58:21;;;;;;;19.58;3.17;;;11.00;99.90;;;;;;4977858;28;20125;-92
2023/01/05 11:00:47;;;;;;;13.82;2.60;;;11.00;99.90;;;;;;4977587;28;20056;-92
2023/01/05 11:03:16;;;;;;;18.00;3.03;;;11.00;99.90;;;;;;5079760;28;20056;-92
2023/01/05 11:05:45;;;;;;;13.13;2.10;;;11.00;99.90;;;;;;5037631;28;20219;-92
2023/01/05 11:08:18;;;;;;;18.00;3.22;;;11.00;99.90;;;;;;5037811;28;20043;-92
2023/01/05 11:10:54;;;;;;;11.10;2.08;;;11.00;99.90;;;;;;5037807;28;20035;-92
2023/01/05 11:13:32;;;;;;;13.52;2.47;;;11.00;99.90;;;;;;5054003;28;20040;-91
2023/01/05 11:16:13;;;;;;;15.85;2.50;;;11.00;99.90;;;;;;5037328;28;20493;-92
2023/01/05 11:19:00;;;;;;;17.40;4.15;;;11.00;99.90;;;;;;5037534;28;20048;-92
2023/01/05 11:21:38;;;;;;;15.15;2.70;;;11.00;99.90;;;;;;5037562;28;20048;-91
2023/01/05 11:24:04;;;;;;;14.82;3.00;;;10.90;99.90;;;;;;5032081;28;20040;-92
2023/01/05 11:26:35;;;;;;;16.55;2.70;;;10.90;99.90;;;;;;5037153;28;20071;-91
2023/01/05 11:29:07;;;;;;;14.70;1.95;;;10.90;99.90;;;;;;5037414;28;20482;-91
2023/01/05 11:31:32;;;;;;;13.90;2.83;;;10.90;99.90;;;;;;5058716;28;20041;-92
2023/01/05 11:34:06;;;;;;;18.00;3.47;;;10.80;99.90;;;;;;5037146;28;20056;-92
2023/01/05 11:36:32;;;;;;;11.75;2.08;;;10.80;99.90;;;;;;5037326;28;20120;-91
2023/01/05 11:38:57;;;;;;;13.98;2.35;;;10.90;99.90;;;;;;5053790;28;20170;-91
2023/01/05 11:41:23;;;;;;;14.27;2.78;;;10.80;99.90;;;;;;5053307;28;20044;-91
2023/01/05 11:43:52;;;;;;;12.85;3.47;;;10.80;99.90;;;;;;5036936;28;20128;-91
2023/01/05 11:46:17;;;;;;;11.15;2.17;;;10.80;99.90;;;;;;5037442;28;20063;-91
2023/01/05 11:49:01;;;;;;;13.63;2.88;;;10.80;99.90;;;;;;5053836;28;20502;-92
2023/01/05 11:51:36;;;;;;;16.70;3.10;;;10.70;99.90;;;;;;5036750;28;20129;-93
2023/01/05 11:54:02;;;;;;;15.57;3.30;;;10.80;99.90;;;;;;5036797;28;20044;-92
2023/01/05 11:56:28;;;;;;;14.18;2.22;;;10.80;99.90;;;;;;5037047;28;20040;-92
2023/01/05 11:58:58;;;;;;;16.73;2.58;;;10.80;99.90;;;;;;5036801;28;20037;-91
2023/01/05 12:02:03;;;;;;;15.60;2.70;;;10.80;99.90;;;;;;5036752;28;20067;-92
2023/01/05 12:04:58;;;;;;;15.52;2.67;;;10.80;99.90;;;;;;5047157;28;20047;-88
2023/01/05 12:07:31;;;;;;;13.98;2.28;;;10.80;99.90;;;;;;5030033;28;20048;-88
2023/01/05 12:10:18;;;;;;;18.67;3.00;;;10.80;99.90;;;;;;5035891;28;20028;-88
2023/01/05 12:13:17;;;;;;;14.82;2.80;;;10.80;99.90;;;;;;5053077;28;20040;-88
2023/01/05 12:16:05;;;;;;;13.95;2.60;;;10.80;99.90;;;;;;5052106;28;20124;-88
2023/01/05 12:19:05;;;;;;;12.43;2.50;;;10.80;99.90;;;;;;5035591;28;20539;-87
2023/01/05 12:21:57;;;;;;;14.02;2.33;;;10.80;99.90;;;;;;5052740;28;20178;-87
2023/01/05 12:24:48;;;;;;;17.77;2.65;;;10.80;99.90;;;;;;5053208;28;20040;-87
2023/01/05 12:27:31;;;;;;;11.30;2.35;;;10.80;99.90;;;;;;5036730;28;20051;-88
2023/01/05 12:30:11;;;;;;;12.15;3.15;;;10.80;99.90;;;;;;5036579;28;20050;-88
2023/01/05 12:32:48;;;;;;;12.77;1.83;;;10.70;99.90;;;;;;5037038;28;20033;-89
2023/01/05 12:35:35;;;;;;;16.95;2.75;;;10.70;99.90;;;;;;5036407;28;20481;-88
2023/01/05 12:38:21;;;;;;;13.65;3.35;;;10.70;99.90;;;;;;5036616;28;20078;-85
2023/01/05 12:41:06;;;;;;;11.93;2.78;;;10.70;99.90;;;;;;5034214;28;20483;-86
2023/01/05 12:44:04;;;;;;;16.00;2.90;;;10.60;99.90;;;;;;5052232;28;20511;-88
2023/01/05 12:47:16;;;;;;;10.82;2.70;;;10.50;99.90;;;;;;5051490;28;20043;-88
2023/01/05 12:49:50;;;;;;;12.27;2.67;;;10.40;99.90;;;;;;5033787;28;20074;-89
2023/01/05 12:52:26;;;;;;;13.70;3.33;;;10.40;99.90;;;;;;5051622;28;20032;-88
2023/01/05 12:55:05;;;;;;;13.05;2.40;;;10.40;99.90;;;;;;5035348;28;20024;-88
2023/01/05 12:57:56;;;;;;;15.82;2.80;;;10.40;99.90;;;;;;5052073;28;20036;-88
2023/01/05 13:00:24;;;;;;;15.63;3.67;;;10.40;99.90;;;;;;5049829;28;20036;-88
2023/01/05 13:02:53;;;;;;;13.73;3.15;;;10.40;99.90;;;;;;5051799;28;20114;-88
2023/01/05 13:05:30;;;;;;;12.45;2.55;;;10.40;99.90;;;;;;5076244;28;20032;-88
2023/01/05 13:08:05;;;;;;;16.85;3.13;;;10.40;99.90;;;;;;5049670;28;20041;-88
2023/01/05 13:10:49;;;;;;;15.25;3.67;;;10.40;99.90;;;;;;5035096;28;20033;-88
2023/01/05 13:13:36;;;;;;;12.80;3.17;;;10.40;99.90;;;;;;5058730;28;20093;-88
2023/01/05 13:16:21;;;;;;;19.00;3.15;;;10.40;99.90;;;;;;5035574;28;20055;-88
2023/01/05 13:18:59;;;;;;;14.45;3.17;;;10.40;99.90;;;;;;5035886;28;20450;-88
2023/01/05 13:21:26;;;;;;;17.15;3.38;;;10.40;99.90;;;;;;5052168;28;20040;-88
2023/01/05 13:23:59;;;;;;;18.33;4.18;;;10.40;99.90;;;;;;5052269;28;20455;-88